createdAt,value
2018-02-16T07:33:40.906Z,44.1
2018-02-16T07:34:40.498Z,44.01
2018-02-16T07:35:40.510Z,43.79
2018-02-16T07:36:40.879Z,43.39
2018-02-16T07:37:40.510Z,43.24
2018-02-16T07:38:40.533Z,43.34
2018-02-16T07:39:40.501Z,43.29
2018-02-16T07:40:40.527Z,43.34
2018-02-16T07:41:40.558Z,43.35
2018-02-16T07:42:40.466Z,43.5
2018-02-16T07:43:40.484Z,43.56
2018-02-16T07:44:40.448Z,43.46
2018-02-16T07:45:40.484Z,43.43
2018-02-16T07:46:40.451Z,43.37
2018-02-16T07:47:40.464Z,43.29
2018-02-16T07:48:40.444Z,43.34
2018-02-16T07:49:40.780Z,43.38
2018-02-16T07:50:40.471Z,43.36
2018-02-16T07:51:40.455Z,43.75
2018-02-16T07:52:40.467Z,43.55
2018-02-16T07:53:40.460Z,43.63
2018-02-16T07:54:40.462Z,43.44
2018-02-16T07:55:40.508Z,43.4
2018-02-16T07:56:40.467Z,43.38
2018-02-16T07:57:40.451Z,43.29
2018-02-16T07:58:40.735Z,43.25
2018-02-16T07:59:40.457Z,43.2
2018-02-16T08:00:40.461Z,43.12
2018-02-16T08:01:40.447Z,43.07
2018-02-16T08:02:40.462Z,43.06
2018-02-16T08:03:40.460Z,43.01
2018-02-16T08:04:40.463Z,43.01
2018-02-16T08:05:40.443Z,42.96
2018-02-16T08:06:40.457Z,42.92
2018-02-16T08:07:40.456Z,42.94
2018-02-16T08:08:40.436Z,42.82
2018-02-16T08:09:40.444Z,42.85
2018-02-16T08:10:40.461Z,42.89
2018-02-16T08:11:40.433Z,42.9
2018-02-16T08:12:40.652Z,42.9
2018-02-16T08:13:40.458Z,42.89
2018-02-16T08:14:40.475Z,42.83
2018-02-16T08:15:40.456Z,42.79
2018-02-16T08:16:40.462Z,42.84
2018-02-16T08:17:40.477Z,42.92
2018-02-16T08:18:40.461Z,42.92
2018-02-16T08:19:40.483Z,42.79
2018-02-16T08:20:40.481Z,42.79
2018-02-16T08:21:40.457Z,42.84
2018-02-16T08:22:40.449Z,42.78
2018-02-16T08:23:40.453Z,42.73
2018-02-16T08:24:40.451Z,42.72
2018-02-16T08:25:40.459Z,42.79
2018-02-16T08:26:40.513Z,42.81
2018-02-16T08:27:40.454Z,42.68
2018-02-16T08:28:40.444Z,42.66
2018-02-16T08:29:40.446Z,42.64
2018-02-16T08:30:40.445Z,42.67
2018-02-16T08:31:40.424Z,42.58
2018-02-16T08:32:40.627Z,42.61
2018-02-16T08:33:40.448Z,42.6
2018-02-16T08:34:40.453Z,42.54
2018-02-16T08:35:40.446Z,42.56
2018-02-16T08:36:40.448Z,42.56
2018-02-16T08:37:40.499Z,42.59
2018-02-16T08:38:40.464Z,42.61
2018-02-16T08:39:40.428Z,42.54
2018-02-16T08:40:40.510Z,42.53
2018-02-16T08:41:40.443Z,42.49
2018-02-16T08:42:40.579Z,42.55
2018-02-16T08:43:40.444Z,42.44
2018-02-16T08:44:40.459Z,42.52
2018-02-16T08:45:40.450Z,42.44
2018-02-16T08:46:40.460Z,42.53
2018-02-16T08:47:40.431Z,42.39
2018-02-16T08:48:40.432Z,42.42
2018-02-16T08:49:40.442Z,42.39
2018-02-16T08:50:40.451Z,42.46
2018-02-16T08:51:40.421Z,42.39
2018-02-16T08:52:40.432Z,42.39
2018-02-16T08:53:40.457Z,42.37
2018-02-16T08:54:40.540Z,42.51
2018-02-16T08:55:40.602Z,42.6
2018-02-16T08:56:40.442Z,42.7
2018-02-16T08:57:40.742Z,42.57
2018-02-16T08:58:40.450Z,42.72
2018-02-16T08:59:40.439Z,43.99
2018-02-16T09:00:40.862Z,42.94
2018-02-16T09:01:40.435Z,42.85
2018-02-16T09:02:40.436Z,42.81
2018-02-16T09:03:40.477Z,42.85
2018-02-16T09:04:40.462Z,42.84
2018-02-16T09:05:40.449Z,42.82
2018-02-16T09:06:40.458Z,42.9
2018-02-16T09:07:40.450Z,42.94
2018-02-16T09:08:40.485Z,43.05
2018-02-16T09:09:40.413Z,42.94
2018-02-16T09:10:40.452Z,43.08
2018-02-16T09:11:40.434Z,43.35
2018-02-16T09:12:40.429Z,43.25
2018-02-16T09:13:40.432Z,43.14
2018-02-16T09:14:40.542Z,43.24
2018-02-16T09:15:40.538Z,43.4
2018-02-16T09:16:40.435Z,43.51
2018-02-16T09:17:40.403Z,43.56
2018-02-16T09:18:40.467Z,43.59
2018-02-16T09:19:40.446Z,43.55
2018-02-16T09:20:40.510Z,43.74
2018-02-16T09:21:40.435Z,43.67
2018-02-16T09:22:40.470Z,43.55
2018-02-16T09:23:40.469Z,43.71
2018-02-16T09:24:40.460Z,43.77
2018-02-16T09:25:40.435Z,43.49
2018-02-16T09:26:40.590Z,43.45
2018-02-16T09:27:40.543Z,43.46
2018-02-16T09:28:40.446Z,43.77
2018-02-16T09:29:40.414Z,43.72
2018-02-16T09:30:40.501Z,43.63
2018-02-16T09:31:40.450Z,43.71
2018-02-16T09:32:40.444Z,43.58
2018-02-16T09:33:40.538Z,43.55
2018-02-16T09:34:40.466Z,43.57
2018-02-16T09:35:40.435Z,43.54
2018-02-16T09:36:40.482Z,43.56
2018-02-16T09:37:40.533Z,43.65
2018-02-16T09:38:40.596Z,43.63
2018-02-16T09:39:40.444Z,43.53
2018-02-16T09:40:40.441Z,43.61
2018-02-16T09:41:40.490Z,43.59
2018-02-16T09:42:40.423Z,43.48
2018-02-16T09:43:40.435Z,43.55
2018-02-16T09:44:40.470Z,43.58
2018-02-16T09:45:40.494Z,43.66
2018-02-16T09:46:40.506Z,43.65
2018-02-16T09:47:40.504Z,43.72
2018-02-16T09:48:40.443Z,43.74
2018-02-16T09:49:40.472Z,43.6
2018-02-16T09:50:40.439Z,43.61
2018-02-16T09:51:40.489Z,43.61
2018-02-16T09:52:40.513Z,43.69
2018-02-16T09:53:40.447Z,43.61
2018-02-16T09:54:40.435Z,43.66
2018-02-16T09:55:40.476Z,43.66
2018-02-16T09:56:40.434Z,43.57
2018-02-16T09:57:40.516Z,43.43
2018-02-16T09:58:40.717Z,43.52
2018-02-16T09:59:40.546Z,43.67
2018-02-16T10:00:40.495Z,43.74
2018-02-16T10:01:40.473Z,43.7
2018-02-16T10:02:40.488Z,43.72
2018-02-16T10:03:40.500Z,43.71
2018-02-16T10:04:40.525Z,43.53
2018-02-16T10:05:40.437Z,43.61
2018-02-16T10:06:40.417Z,43.58
2018-02-16T10:07:40.472Z,43.47
2018-02-16T10:08:40.413Z,43.49
2018-02-16T10:09:40.492Z,43.44
2018-02-16T10:10:40.509Z,43.45
2018-02-16T10:11:40.414Z,43.55
2018-02-16T10:12:40.428Z,43.4
2018-02-16T10:13:40.415Z,43.43
2018-02-16T10:14:40.429Z,43.39
2018-02-16T10:15:40.421Z,43.42
2018-02-16T10:16:40.420Z,43.37
2018-02-16T10:17:40.421Z,43.25
2018-02-16T10:18:40.514Z,43.38
2018-02-16T10:19:40.722Z,43.33
2018-02-16T10:20:40.400Z,43.19
2018-02-16T10:21:40.397Z,43.3
2018-02-16T10:22:40.433Z,43.15
2018-02-16T10:23:40.416Z,43.22
2018-02-16T10:24:40.464Z,43.14
2018-02-16T10:25:40.434Z,43.14
2018-02-16T10:26:40.514Z,43.1
2018-02-16T10:27:40.538Z,43.11
2018-02-16T10:28:40.401Z,43.13
2018-02-16T10:29:40.444Z,43.11
2018-02-16T10:30:40.484Z,43.24
2018-02-16T10:31:40.423Z,43.05
2018-02-16T10:32:40.404Z,43.16
2018-02-16T10:33:40.415Z,43.03
2018-02-16T10:34:40.533Z,43.09
2018-02-16T10:35:40.418Z,43.14
2018-02-16T10:36:40.475Z,43.18
2018-02-16T10:37:40.407Z,43.02
2018-02-16T10:38:40.406Z,43.15
2018-02-16T10:39:40.433Z,43.06
2018-02-16T10:40:40.410Z,43.1
2018-02-16T10:41:40.388Z,43.13
2018-02-16T10:42:40.541Z,43.11
2018-02-16T10:43:40.399Z,43.03
2018-02-16T10:44:40.438Z,43.23
2018-02-16T10:45:40.416Z,42.98
2018-02-16T10:46:40.409Z,42.75
2018-02-16T10:47:40.422Z,43.08
2018-02-16T10:48:40.422Z,43.04
2018-02-16T10:49:40.623Z,42.54
2018-02-16T10:50:40.407Z,42.8
2018-02-16T10:51:40.440Z,42.91
2018-02-16T10:52:40.381Z,42.45
2018-02-16T10:53:40.412Z,42.7
2018-02-16T10:54:40.395Z,42.68
2018-02-16T10:55:40.424Z,42.97
2018-02-16T10:56:40.431Z,42.92
2018-02-16T10:57:40.480Z,42.76
2018-02-16T10:58:40.397Z,42.84
2018-02-16T10:59:40.456Z,43.09
2018-02-16T11:00:40.414Z,43
2018-02-16T11:01:40.493Z,43.11
2018-02-16T11:02:40.439Z,43.07
2018-02-16T11:03:40.431Z,43.34
2018-02-16T11:04:40.441Z,43.18
2018-02-16T11:05:40.435Z,42.92
2018-02-16T11:06:40.470Z,42.73
2018-02-16T11:07:40.517Z,43.12
2018-02-16T11:08:40.404Z,43.13
2018-02-16T11:09:40.422Z,43.31
2018-02-16T11:10:40.388Z,43.16
2018-02-16T11:11:40.396Z,42.88
2018-02-16T11:12:40.480Z,43.16
2018-02-16T11:13:40.410Z,43.23
2018-02-16T11:14:40.400Z,43.3
2018-02-16T11:15:40.517Z,43.13
2018-02-16T11:16:40.504Z,43.21
2018-02-16T11:17:40.411Z,43.05
2018-02-16T11:18:40.392Z,43.03
2018-02-16T11:19:40.449Z,43.13
2018-02-16T11:20:40.397Z,43
2018-02-16T11:21:40.376Z,42.71
2018-02-16T11:22:40.363Z,42.68
2018-02-16T11:23:40.431Z,42.89
2018-02-16T11:24:40.466Z,42.89
2018-02-16T11:25:40.401Z,42.82
2018-02-16T11:26:40.428Z,42.8
2018-02-16T11:27:40.411Z,42.7
2018-02-16T11:28:40.437Z,42.94
2018-02-16T11:29:40.372Z,43.07
2018-02-16T11:30:40.478Z,43.22
2018-02-16T11:31:40.510Z,43.16
2018-02-16T11:32:40.390Z,43.07
2018-02-16T11:33:40.447Z,43.11
2018-02-16T11:34:40.430Z,43.18
2018-02-16T11:35:40.371Z,43.21
2018-02-16T11:36:40.409Z,43.23
2018-02-16T11:37:40.370Z,43.16
2018-02-16T11:38:40.395Z,43.32
2018-02-16T11:39:40.415Z,43.17
2018-02-16T11:40:40.435Z,43.52
2018-02-16T11:41:40.382Z,43.4
2018-02-16T11:42:40.510Z,43.14
2018-02-16T11:43:40.388Z,44.03
2018-02-16T11:44:40.384Z,43.57
2018-02-16T11:45:40.363Z,43.08
2018-02-16T11:46:40.377Z,43.23
2018-02-16T11:47:40.387Z,43.29
2018-02-16T11:48:40.418Z,43.15
2018-02-16T11:49:40.387Z,43.21
2018-02-16T11:50:40.382Z,43.23
2018-02-16T11:51:40.442Z,43.18
2018-02-16T11:52:40.395Z,43.17
2018-02-16T11:53:40.395Z,43.13
2018-02-16T11:54:40.509Z,43.14
2018-02-16T11:55:40.387Z,43.11
2018-02-16T11:56:40.385Z,43.11
2018-02-16T11:57:40.450Z,43.08
2018-02-16T11:58:40.380Z,43.13
2018-02-16T11:59:40.377Z,43.08
2018-02-16T12:00:40.489Z,43
2018-02-16T12:01:40.387Z,43.07
2018-02-16T12:02:40.386Z,43
2018-02-16T12:03:40.429Z,42.99
2018-02-16T12:04:40.451Z,43.05
2018-02-16T12:05:40.425Z,43.09
2018-02-16T12:06:40.396Z,43.1
2018-02-16T12:07:40.428Z,43.03
2018-02-16T12:08:40.368Z,42.93
2018-02-16T12:09:40.453Z,42.53
2018-02-16T12:10:40.762Z,42.65
2018-02-16T12:11:40.378Z,42.71
2018-02-16T12:12:40.404Z,42.78
2018-02-16T12:13:40.400Z,42.8
2018-02-16T12:14:40.381Z,42.87
2018-02-16T12:15:40.452Z,42.82
2018-02-16T12:16:40.459Z,42.83
2018-02-16T12:17:40.370Z,42.83
2018-02-16T12:18:40.389Z,42.83
2018-02-16T12:19:40.358Z,42.91
2018-02-16T12:20:40.393Z,42.86
2018-02-16T12:21:40.416Z,42.91
2018-02-16T12:22:40.368Z,42.9
2018-02-16T12:23:40.369Z,42.9
2018-02-16T12:24:40.362Z,42.73
2018-02-16T12:25:40.443Z,42.69
2018-02-16T12:26:40.383Z,43.16
2018-02-16T12:27:40.378Z,43.04
2018-02-16T12:28:40.371Z,42.98
2018-02-16T12:29:40.372Z,43.07
2018-02-16T12:30:40.394Z,43.05
2018-02-16T12:31:40.402Z,42.99
2018-02-16T12:32:40.354Z,43.08
2018-02-16T12:33:40.445Z,43
2018-02-16T12:34:40.352Z,43.03
2018-02-16T12:35:40.375Z,43.05
2018-02-16T12:36:40.398Z,43.03
2018-02-16T12:37:40.411Z,42.96
2018-02-16T12:38:40.389Z,43
2018-02-16T12:39:40.456Z,42.97
2018-02-16T12:40:40.461Z,42.94
2018-02-16T12:41:40.610Z,42.96
2018-02-16T12:42:40.418Z,42.8
2018-02-16T12:43:40.420Z,42.93
2018-02-16T12:44:40.349Z,42.92
2018-02-16T12:45:40.363Z,42.77
2018-02-16T12:46:40.377Z,42.77
2018-02-16T12:47:40.372Z,42.57
2018-02-16T12:48:40.376Z,42.54
2018-02-16T12:49:40.367Z,42.74
2018-02-16T12:50:40.361Z,42.47
2018-02-16T12:51:40.424Z,42.58
2018-02-16T12:52:40.406Z,42.45
2018-02-16T12:53:40.391Z,42.52
2018-02-16T12:54:40.462Z,42.54
2018-02-16T12:55:40.365Z,42.45
2018-02-16T12:56:40.481Z,42.56
2018-02-16T12:57:40.367Z,42.49
2018-02-16T12:58:40.459Z,42.43
2018-02-16T12:59:40.404Z,42.52
2018-02-16T13:00:40.397Z,42.52
2018-02-16T13:01:40.366Z,42.45
2018-02-16T13:02:40.348Z,42.26
2018-02-16T13:03:40.413Z,42.54
2018-02-16T13:04:40.384Z,42.48
2018-02-16T13:05:40.374Z,42.58
2018-02-16T13:06:40.374Z,42.62
2018-02-16T13:07:40.404Z,42.54
2018-02-16T13:08:40.357Z,42.48
2018-02-16T13:09:40.337Z,42.51
2018-02-16T13:10:40.359Z,42.57
2018-02-16T13:11:40.342Z,42.45
2018-02-16T13:12:40.346Z,42.45
2018-02-16T13:13:40.372Z,42.4
2018-02-16T13:14:40.365Z,42.38
2018-02-16T13:15:40.357Z,42.39
2018-02-16T13:16:41.819Z,42.42
2018-02-16T13:17:40.464Z,42.41
2018-02-16T13:18:40.389Z,42.44
2018-02-16T13:19:40.345Z,42.36
2018-02-16T13:20:40.355Z,42.4
2018-02-16T13:21:40.338Z,42.4
2018-02-16T13:22:40.354Z,42.4
2018-02-16T13:23:40.361Z,42.39
2018-02-16T13:24:40.360Z,42.44
2018-02-16T13:25:40.324Z,42.41
2018-02-16T13:26:40.320Z,42.34
2018-02-16T13:27:40.322Z,42.41
2018-02-16T13:28:40.350Z,42.39
2018-02-16T13:29:40.333Z,42.37
2018-02-16T13:30:40.428Z,42.33
2018-02-16T13:31:40.441Z,42.42
2018-02-16T13:32:40.338Z,42.4
2018-02-16T13:33:40.484Z,42.46
2018-02-16T13:34:40.369Z,42.48
2018-02-16T13:35:40.393Z,42.46
2018-02-16T13:36:40.340Z,42.29
2018-02-16T13:37:40.378Z,42.34
2018-02-16T13:38:40.624Z,42.4
2018-02-16T13:39:40.343Z,42.37
2018-02-16T13:40:40.341Z,42.34
2018-02-16T13:41:40.457Z,42.38
2018-02-16T13:42:40.348Z,42.32
2018-02-16T13:43:40.502Z,42.39
2018-02-16T13:44:40.322Z,42.4
2018-02-16T13:45:40.355Z,42.33
2018-02-16T13:46:40.349Z,42.4
2018-02-16T13:47:40.354Z,42.38
2018-02-16T13:48:40.385Z,42.38
2018-02-16T13:49:40.340Z,42.41
2018-02-16T13:50:40.398Z,42.37
2018-02-16T13:51:40.420Z,42.37
2018-02-16T13:52:40.710Z,42.29
2018-02-16T13:53:40.318Z,42.34
2018-02-16T13:54:40.414Z,42.28
2018-02-16T13:55:40.644Z,42.34
2018-02-16T13:56:40.367Z,42.44
2018-02-16T13:57:40.389Z,42.38
2018-02-16T13:58:40.328Z,42.34
2018-02-16T13:59:40.327Z,42.29
2018-02-16T14:00:40.353Z,42.38
2018-02-16T14:01:40.360Z,42.4
2018-02-16T14:02:40.337Z,42.46
2018-02-16T14:03:40.350Z,42.25
2018-02-16T14:04:40.347Z,42.32
2018-02-16T14:05:40.339Z,42.37
2018-02-16T14:06:40.337Z,42.31
2018-02-16T14:07:40.340Z,42.33
2018-02-16T14:08:40.326Z,42.23
2018-02-16T14:09:40.327Z,42.3
2018-02-16T14:10:40.315Z,42.45
2018-02-16T14:11:40.360Z,42.45
2018-02-16T14:12:40.382Z,42.31
2018-02-16T14:13:40.319Z,42.26
2018-02-16T14:14:40.329Z,42.29
2018-02-16T14:15:40.331Z,42.23
2018-02-16T14:16:40.356Z,42.32
2018-02-16T14:17:40.318Z,42.36
2018-02-16T14:18:40.339Z,42.33
2018-02-16T14:19:40.347Z,42.26
2018-02-16T14:20:40.336Z,42.37
2018-02-16T14:21:40.317Z,42.29
2018-02-16T14:22:40.315Z,42.36
2018-02-16T14:23:40.338Z,42.29
2018-02-16T14:24:40.330Z,42.36
2018-02-16T14:25:40.380Z,42.9
2018-02-16T14:26:40.312Z,42.68
2018-02-16T14:27:40.361Z,42.51
2018-02-16T14:28:40.358Z,42.43
2018-02-16T14:29:40.545Z,42.39
2018-02-16T14:30:40.377Z,42.4
2018-02-16T14:31:40.331Z,42.41
2018-02-16T14:32:40.326Z,42.33
2018-02-16T14:33:40.322Z,42.33
2018-02-16T14:34:40.319Z,42.37
2018-02-16T14:35:40.342Z,42.4
2018-02-16T14:36:40.333Z,42.42
2018-02-16T14:37:40.348Z,42.46
2018-02-16T14:38:40.346Z,42.45
2018-02-16T14:39:40.362Z,42.47
2018-02-16T14:40:40.379Z,42.47
2018-02-16T14:41:40.326Z,42.47
2018-02-16T14:42:40.328Z,42.48
2018-02-16T14:43:40.327Z,42.51
2018-02-16T14:44:40.327Z,42.5
2018-02-16T14:45:40.383Z,42.57
2018-02-16T14:46:40.415Z,42.61
2018-02-16T14:47:40.359Z,42.39
2018-02-16T14:48:40.317Z,42.34
2018-02-16T14:49:40.295Z,42.51
2018-02-16T14:50:40.323Z,42.56
2018-02-16T14:51:40.311Z,42.59
2018-02-16T14:52:40.332Z,42.63
2018-02-16T14:53:40.351Z,42.33
2018-02-16T14:54:40.368Z,42.46
2018-02-16T14:55:40.317Z,42.51
2018-02-16T14:56:40.348Z,42.5
2018-02-16T14:57:40.335Z,42.53
2018-02-16T14:58:40.340Z,42.49
2018-02-16T14:59:40.332Z,42.5
2018-02-16T15:00:40.396Z,42.43
2018-02-16T15:01:40.424Z,42.43
2018-02-16T15:02:40.323Z,42.41
2018-02-16T15:03:40.314Z,42.45
2018-02-16T15:04:40.665Z,42.45
2018-02-16T15:05:40.453Z,42.42
2018-02-16T15:06:40.778Z,42.48
2018-02-16T15:07:40.356Z,42.49
2018-02-16T15:08:40.326Z,42.43
2018-02-16T15:09:40.312Z,42.4
2018-02-16T15:10:40.302Z,42.4
2018-02-16T15:11:40.311Z,42.4
2018-02-16T15:12:40.317Z,42.37
2018-02-16T15:13:40.340Z,42.42
2018-02-16T15:14:40.337Z,42.45
2018-02-16T15:15:40.300Z,42.38
2018-02-16T15:16:40.302Z,42.44
2018-02-16T15:17:40.912Z,42.35
2018-02-16T15:18:40.434Z,42.28
2018-02-16T15:19:40.508Z,42.34
2018-02-16T15:20:40.308Z,42.4
2018-02-16T15:21:40.304Z,42.3
2018-02-16T15:22:40.296Z,42.36
2018-02-16T15:23:40.316Z,42.32
2018-02-16T15:24:40.318Z,42.31
2018-02-16T15:25:40.404Z,42.27
2018-02-16T15:26:40.459Z,42.35
2018-02-16T15:27:40.366Z,42.3
2018-02-16T15:28:40.319Z,42.2
2018-02-16T15:29:40.308Z,42.22
2018-02-16T15:30:40.294Z,42.24
2018-02-16T15:31:40.272Z,42.31
2018-02-16T15:32:40.294Z,42.32
2018-02-16T15:33:40.344Z,42.23
2018-02-16T15:34:40.289Z,42.23
2018-02-16T15:35:40.318Z,42.36
2018-02-16T15:36:40.300Z,42.25
2018-02-16T15:37:40.306Z,42.16
2018-02-16T15:38:40.322Z,42.23
2018-02-16T15:39:40.282Z,42.26
2018-02-16T15:40:40.332Z,42.17
2018-02-16T15:41:40.302Z,42.26
2018-02-16T15:42:40.327Z,42.28
2018-02-16T15:43:40.307Z,42.22
2018-02-16T15:44:40.288Z,42.36
2018-02-16T15:45:40.347Z,42.31
2018-02-16T15:46:40.312Z,42.31
2018-02-16T15:47:40.282Z,42.24
2018-02-16T15:48:40.302Z,42.28
2018-02-16T15:49:40.285Z,42.24
2018-02-16T15:50:40.721Z,42.37
2018-02-16T15:51:40.300Z,42.23
2018-02-16T15:52:40.304Z,42.22
2018-02-16T15:53:40.290Z,42.26
2018-02-16T15:54:40.274Z,42.26
2018-02-16T15:55:40.296Z,42.3
2018-02-16T15:56:40.316Z,42.35
2018-02-16T15:57:40.304Z,42.24
2018-02-16T15:58:40.316Z,42.2
2018-02-16T15:59:40.291Z,42.29
2018-02-16T16:00:40.279Z,42.21
2018-02-16T16:01:40.288Z,42.22
2018-02-16T16:02:40.294Z,42.16
2018-02-16T16:03:40.289Z,42.19
2018-02-16T16:04:40.286Z,42.21
2018-02-16T16:05:40.335Z,42.21
2018-02-16T16:06:40.292Z,42.25
2018-02-16T16:07:40.314Z,42.3
2018-02-16T16:08:40.284Z,42.2
2018-02-16T16:09:40.292Z,42.26
2018-02-16T16:10:40.354Z,42.37
2018-02-16T16:11:40.269Z,42.24
2018-02-16T16:12:40.310Z,42.33
2018-02-16T16:13:40.289Z,42.23
2018-02-16T16:14:40.299Z,42.22
2018-02-16T16:15:40.530Z,42.26
2018-02-16T16:16:40.269Z,42.2
2018-02-16T16:17:40.273Z,42.26
2018-02-16T16:18:40.288Z,42.13
2018-02-16T16:19:40.303Z,42.26
2018-02-16T16:20:40.394Z,42.28
2018-02-16T16:21:40.271Z,42.24
2018-02-16T16:22:40.276Z,42.12
2018-02-16T16:23:40.571Z,42.2
2018-02-16T16:24:40.288Z,42.21
2018-02-16T16:25:40.286Z,42.24
2018-02-16T16:26:40.276Z,42.33
2018-02-16T16:27:40.326Z,42.3
2018-02-16T16:28:40.334Z,42.2
2018-02-16T16:29:40.276Z,42.25
2018-02-16T16:30:40.291Z,42.24
2018-02-16T16:31:40.298Z,42.19
2018-02-16T16:32:40.285Z,42.26
2018-02-16T16:33:40.316Z,42.2
2018-02-16T16:34:40.288Z,42.26
2018-02-16T16:35:40.313Z,42.3
2018-02-16T16:36:40.290Z,42.3
2018-02-16T16:37:40.305Z,42.34
2018-02-16T16:38:40.291Z,42.33
2018-02-16T16:39:40.289Z,42.4
2018-02-16T16:40:40.313Z,42.3
2018-02-16T16:41:40.269Z,42.3
2018-02-16T16:42:40.316Z,42.27
2018-02-16T16:43:40.278Z,42.29
2018-02-16T16:44:40.276Z,42.29
2018-02-16T16:45:40.373Z,42.34
2018-02-16T16:46:40.288Z,42.3
2018-02-16T16:47:40.367Z,42.4
2018-02-16T16:48:40.288Z,42.27
2018-02-16T16:49:40.277Z,42.34
2018-02-16T16:50:40.302Z,42.29
2018-02-16T16:51:40.268Z,42.35
2018-02-16T16:52:40.302Z,42.26
2018-02-16T16:53:40.305Z,42.47
2018-02-16T16:54:40.286Z,42.2
2018-02-16T16:55:40.262Z,42.21
2018-02-16T16:56:40.331Z,41.97
2018-02-16T16:57:40.311Z,41.79
2018-02-16T16:58:40.304Z,41.81
2018-02-16T16:59:40.365Z,41.96
2018-02-16T17:00:40.263Z,42.84
2018-02-16T17:01:40.388Z,42.69
2018-02-16T17:02:40.314Z,42.71
2018-02-16T17:03:40.312Z,42.79
2018-02-16T17:04:40.255Z,42.58
2018-02-16T17:05:40.267Z,42.56
2018-02-16T17:06:40.303Z,42.74
2018-02-16T17:07:40.287Z,42.59
2018-02-16T17:08:40.287Z,42.4
2018-02-16T17:09:40.271Z,42.55
2018-02-16T17:10:40.294Z,42.61
2018-02-16T17:11:40.288Z,42.62
2018-02-16T17:12:40.268Z,42.5
2018-02-16T17:13:40.272Z,42.54
2018-02-16T17:14:40.276Z,42.39
2018-02-16T17:15:40.261Z,42.46
2018-02-16T17:16:40.314Z,42.41
2018-02-16T17:17:40.281Z,42.51
2018-02-16T17:18:40.369Z,42.47
2018-02-16T17:19:40.274Z,42.49
2018-02-16T17:20:40.249Z,42.46
2018-02-16T17:21:40.285Z,42.46
2018-02-16T17:22:40.305Z,42.48
2018-02-16T17:23:40.402Z,42.49
2018-02-16T17:24:40.372Z,42.49
2018-02-16T17:25:40.354Z,42.53
2018-02-16T17:26:40.280Z,42.52
2018-02-16T17:27:40.308Z,42.47
2018-02-16T17:28:40.274Z,42.48
2018-02-16T17:29:40.247Z,42.47
2018-02-16T17:30:40.272Z,42.4
2018-02-16T17:31:40.258Z,42.46
2018-02-16T17:32:40.589Z,42.44
2018-02-16T17:33:40.266Z,42.42
2018-02-16T17:34:40.260Z,42.46
2018-02-16T17:35:40.265Z,42.39
2018-02-16T17:36:40.344Z,42.33
2018-02-16T17:37:40.294Z,42.42
2018-02-16T17:38:40.253Z,42.42
2018-02-16T17:39:40.261Z,42.38
2018-02-16T17:40:40.271Z,42.46
2018-02-16T17:41:40.255Z,42.41
2018-02-16T17:42:40.263Z,42.34
2018-02-16T17:43:40.253Z,42.46
2018-02-16T17:44:40.324Z,42.39
2018-02-16T17:45:40.317Z,42.29
2018-02-16T17:46:40.320Z,42.12
2018-02-16T17:47:40.274Z,42.18
2018-02-16T17:48:40.258Z,42.17
2018-02-16T17:49:40.297Z,42.25
2018-02-16T17:50:40.244Z,42.19
2018-02-16T17:51:40.265Z,42.08
2018-02-16T17:52:40.281Z,42.31
2018-02-16T17:53:40.281Z,42.29
2018-02-16T17:54:40.274Z,42.36
2018-02-16T17:55:40.248Z,42.32
2018-02-16T17:56:40.257Z,42.32
2018-02-16T17:57:40.233Z,42.27
2018-02-16T17:58:40.278Z,42.32
2018-02-16T17:59:40.245Z,42.22
2018-02-16T18:00:40.256Z,42.26
2018-02-16T18:01:40.240Z,42.28
2018-02-16T18:02:40.277Z,42.17
2018-02-16T18:03:40.376Z,42.35
2018-02-16T18:04:40.337Z,42.36
2018-02-16T18:05:40.257Z,42.29
2018-02-16T18:06:40.232Z,42.42
2018-02-16T18:07:40.246Z,42.23
2018-02-16T18:08:40.284Z,42.29
2018-02-16T18:09:40.243Z,42.36
2018-02-16T18:10:40.516Z,42.32
2018-02-16T18:11:40.256Z,42.37
2018-02-16T18:12:40.361Z,42.36
2018-02-16T18:13:40.247Z,42.43
2018-02-16T18:14:40.247Z,42.4
2018-02-16T18:15:40.229Z,42.35
2018-02-16T18:16:40.245Z,42.4
2018-02-16T18:17:40.416Z,42.48
2018-02-16T18:18:40.240Z,42.49
2018-02-16T18:19:40.354Z,42.42
2018-02-16T18:20:40.386Z,42.48
2018-02-16T18:21:40.264Z,42.4
2018-02-16T18:22:40.237Z,42.52
2018-02-16T18:23:40.332Z,42.59
2018-02-16T18:24:40.357Z,42.53
2018-02-16T18:25:40.280Z,42.61
2018-02-16T18:26:40.233Z,42.64
2018-02-16T18:27:40.258Z,42.65
2018-02-16T18:28:40.257Z,42.48
2018-02-16T18:29:40.267Z,42.61
2018-02-16T18:30:40.234Z,42.61
2018-02-16T18:31:40.245Z,42.66
2018-02-16T18:32:40.233Z,42.65
2018-02-16T18:33:40.237Z,42.66
2018-02-16T18:34:40.398Z,42.71
2018-02-16T18:35:40.250Z,42.69
2018-02-16T18:36:40.220Z,42.69
2018-02-16T18:37:40.249Z,42.76
2018-02-16T18:38:40.317Z,42.81
2018-02-16T18:39:40.246Z,42.76
2018-02-16T18:40:40.257Z,42.78
2018-02-16T18:41:40.234Z,42.85
2018-02-16T18:42:40.252Z,42.87
2018-02-16T18:43:40.256Z,42.91
2018-02-16T18:44:40.277Z,42.87
2018-02-16T18:45:40.235Z,42.91
2018-02-16T18:46:40.250Z,42.9
2018-02-16T18:47:40.232Z,42.9
2018-02-16T18:48:40.247Z,42.9
2018-02-16T18:49:40.317Z,42.88
2018-02-16T18:50:40.390Z,42.96
2018-02-16T18:51:40.255Z,42.88
2018-02-16T18:52:40.213Z,43.18
2018-02-16T18:53:40.265Z,43
2018-02-16T18:54:40.223Z,42.89
2018-02-16T18:55:40.235Z,42.94
2018-02-16T18:56:40.268Z,43.06
2018-02-16T18:57:40.271Z,42.9
2018-02-16T18:58:40.510Z,42.91
2018-02-16T18:59:40.247Z,42.83
2018-02-16T19:00:40.245Z,42.83
2018-02-16T19:01:40.223Z,42.83
2018-02-16T19:02:40.229Z,42.8
2018-02-16T19:03:40.226Z,42.8
2018-02-16T19:04:40.419Z,42.91
2018-02-16T19:05:40.234Z,42.95
2018-02-16T19:06:40.249Z,42.94
2018-02-16T19:07:40.242Z,42.98
2018-02-16T19:08:40.244Z,42.99
2018-02-16T19:09:40.258Z,43
2018-02-16T19:10:40.393Z,43.02
2018-02-16T19:11:40.375Z,42.95
2018-02-16T19:12:40.228Z,42.96
2018-02-16T19:13:40.244Z,43
2018-02-16T19:14:40.247Z,43
2018-02-16T19:15:40.231Z,42.98
2018-02-16T19:16:40.352Z,42.99
2018-02-16T19:17:40.223Z,43.02
2018-02-16T19:18:40.836Z,43.06
2018-02-16T19:19:40.337Z,43.05
2018-02-16T19:20:40.234Z,43
2018-02-16T19:21:40.215Z,42.99
2018-02-16T19:22:40.231Z,42.95
2018-02-16T19:23:40.266Z,43
2018-02-16T19:24:40.230Z,43
2018-02-16T19:25:40.292Z,43.05
2018-02-16T19:26:40.733Z,43.15
2018-02-16T19:27:17.337Z,46.4
2018-02-16T19:28:16.960Z,43.27
2018-02-16T19:29:17.000Z,43.2
2018-02-16T19:30:17.011Z,43.17
2018-02-16T19:31:16.969Z,43.23
2018-02-16T19:32:16.979Z,43.24
2018-02-16T19:33:16.978Z,43.35
2018-02-16T19:34:17.823Z,43.26
2018-02-16T19:35:16.956Z,43.3
2018-02-16T19:36:16.980Z,43.33
2018-02-16T19:37:17.534Z,43.08
2018-02-16T19:38:17.425Z,43.42
2018-02-16T19:39:17.371Z,43.59
2018-02-16T19:40:17.001Z,43.66
2018-02-16T19:41:17.070Z,43.78
2018-02-16T19:42:17.144Z,43.88
2018-02-16T19:43:17.568Z,43.77
2018-02-16T19:44:16.971Z,43.71
2018-02-16T19:45:17.552Z,43.72
2018-02-16T19:46:17.184Z,43.82
2018-02-16T19:47:17.020Z,43.88
2018-02-16T19:48:17.957Z,43.97
2018-02-16T19:49:17.865Z,43.92
2018-02-16T19:50:17.669Z,43.97
2018-02-16T19:51:16.962Z,43.99
2018-02-16T19:52:16.997Z,44.03
2018-02-16T19:53:17.720Z,44.04
2018-02-16T19:54:16.945Z,44.08
2018-02-16T19:55:17.920Z,44.08
2018-02-16T19:56:16.990Z,44.07
2018-02-16T19:57:17.832Z,44.13
2018-02-16T19:58:17.761Z,44.09
2018-02-16T19:59:16.937Z,44.11
2018-02-16T20:00:17.004Z,44.05
2018-02-16T20:01:17.183Z,44.08
2018-02-16T20:02:16.972Z,44.08
2018-02-16T20:03:17.115Z,44.11
2018-02-16T20:04:17.053Z,44.15
2018-02-16T20:05:16.975Z,44.16
2018-02-16T20:06:17.230Z,44.13
2018-02-16T20:07:18.012Z,44.11
2018-02-16T20:08:17.753Z,44.08
2018-02-16T20:09:17.331Z,44.16
2018-02-16T20:10:17.009Z,44.15
2018-02-16T20:11:17.171Z,44.13
2018-02-16T20:12:16.947Z,44.1
2018-02-16T20:13:16.942Z,44.13
2018-02-16T20:14:18.011Z,44.14
2018-02-16T20:15:16.972Z,44.12
2018-02-16T20:16:17.762Z,44.12
2018-02-16T20:17:17.487Z,44.13
2018-02-16T20:18:17.200Z,44.06
2018-02-16T20:19:17.067Z,44.19
2018-02-16T20:20:17.105Z,44.13
2018-02-16T20:21:16.965Z,44.06
2018-02-16T20:22:17.819Z,44.05
2018-02-16T20:23:16.994Z,44.04
2018-02-16T20:24:16.929Z,44.13
2018-02-16T20:25:16.941Z,44.13
2018-02-16T20:26:17.589Z,44.1
2018-02-16T20:27:17.656Z,44.1
2018-02-16T20:28:17.548Z,44.16
2018-02-16T20:29:16.930Z,44.08